Time;durP1;ratioP1;P1;durP2;ratioP2;P2;SDS_P1;SDS_P2;PMS_P1;PMS_P2;Temp;Humidity;BMP_temperature;BMP_pressure;BME280_temperature;BME280_humidity;BME280_pressure;Samples;Min_cycle;Max_cycle;Signal;HPM_P1;HPM_P2
2023/03/05 00:02:01;;;;;;;6.30;2.25;;;;;;;3.42;100.00;100913.56;5105164;29;20442;-73
2023/03/05 00:04:31;;;;;;;8.93;2.20;;;;;;;3.31;100.00;100908.41;5106092;29;20067;-74
2023/03/05 00:07:02;;;;;;;11.55;2.45;;;;;;;3.31;100.00;100902.38;5088920;29;20102;-75
2023/03/05 00:09:32;;;;;;;7.22;2.00;;;;;;;3.29;100.00;100909.28;5103962;29;20035;-74
2023/03/05 00:12:03;;;;;;;10.20;2.30;;;;;;;3.20;100.00;100901.56;5114158;28;20031;-74
2023/03/05 00:14:33;;;;;;;10.35;1.98;;;;;;;3.29;100.00;100901.53;5104265;29;20106;-75
2023/03/05 00:17:03;;;;;;;12.23;2.30;;;;;;;3.26;100.00;100898.94;5105510;29;20280;-75
2023/03/05 00:19:34;;;;;;;6.45;1.77;;;;;;;3.29;100.00;100899.81;5104431;29;20071;-74
2023/03/05 00:22:04;;;;;;;10.77;2.33;;;;;;;3.18;100.00;100896.38;5106639;28;20115;-74
2023/03/05 00:24:34;;;;;;;10.90;2.63;;;;;;;3.13;100.00;100895.53;5100771;29;20036;-75
2023/03/05 00:27:05;;;;;;;8.38;2.00;;;;;;;3.30;100.00;100895.50;5102346;29;20079;-74
2023/03/05 00:29:35;;;;;;;11.07;2.70;;;;;;;3.30;100.00;100904.13;5107185;29;20031;-75
2023/03/05 00:32:05;;;;;;;7.57;2.47;;;;;;;3.35;100.00;100894.63;5106063;29;20028;-74
2023/03/05 00:34:36;;;;;;;9.93;2.55;;;;;;;3.18;100.00;100888.63;5107040;29;20049;-74
2023/03/05 00:37:06;;;;;;;10.43;2.55;;;;;;;3.27;100.00;100890.34;5095411;29;20023;-74
2023/03/05 00:39:37;;;;;;;7.20;2.00;;;;;;;3.14;100.00;100879.19;5105541;29;20032;-74
2023/03/05 00:42:07;;;;;;;14.10;2.30;;;;;;;3.14;100.00;100879.19;5100231;29;20114;-76
2023/03/05 00:44:37;;;;;;;8.82;2.33;;;;;;;3.22;100.00;100879.16;5109982;29;20035;-74
2023/03/05 00:47:07;;;;;;;9.77;2.08;;;;;;;3.21;100.00;100878.28;5110750;29;20323;-74
2023/03/05 00:49:38;;;;;;;12.02;2.40;;;;;;;3.24;100.00;100874.84;5110492;29;20046;-75
2023/03/05 00:52:08;;;;;;;9.18;1.88;;;;;;;3.13;100.00;100868.84;5110482;28;20102;-73
2023/03/05 00:54:38;;;;;;;11.30;2.13;;;;;;;3.17;100.00;100868.84;5108373;29;20051;-75
2023/03/05 00:57:08;;;;;;;7.65;2.25;;;;;;;3.11;100.00;100863.69;5110703;29;20027;-74
2023/03/05 00:59:39;;;;;;;13.05;2.15;;;;;;;3.17;100.00;100860.25;5110342;29;20061;-74
2023/03/05 01:02:10;;;;;;;5.70;1.90;;;;;;;3.19;100.00;100863.69;5109896;28;20110;-75
2023/03/05 01:04:40;;;;;;;9.48;2.30;;;;;;;3.16;100.00;100861.97;5107092;29;20054;-74
2023/03/05 01:07:10;;;;;;;6.63;2.08;;;;;;;3.18;100.00;100862.81;5077465;29;20028;-72
2023/03/05 01:09:41;;;;;;;9.82;2.38;;;;;;;3.13;100.00;100864.53;5100211;29;20103;-74
2023/03/05 01:12:11;;;;;;;9.85;2.28;;;;;;;3.14;100.00;100860.22;5090613;29;20126;-75
2023/03/05 01:14:41;;;;;;;7.05;1.77;;;;;;;3.16;100.00;100861.97;5110692;29;20504;-75
2023/03/05 01:17:11;;;;;;;9.43;2.03;;;;;;;3.20;100.00;100847.31;5109694;29;20031;-73
2023/03/05 01:19:42;;;;;;;10.25;2.40;;;;;;;3.17;100.00;100842.19;5106637;29;20376;-75
2023/03/05 01:22:12;;;;;;;6.75;1.73;;;;;;;3.18;100.00;100838.72;5107638;29;20032;-74
2023/03/05 01:24:42;;;;;;;5.90;2.08;;;;;;;3.15;100.00;100831.84;5114335;29;20872;-74
2023/03/05 01:27:13;;;;;;;8.57;1.92;;;;;;;2.92;100.00;100824.97;5106682;29;20502;-73
2023/03/05 01:29:43;;;;;;;6.22;1.77;;;;;;;3.10;100.00;100822.38;5107785;29;20074;-75
2023/03/05 01:32:13;;;;;;;8.30;1.60;;;;;;;2.93;100.00;100816.38;5105772;29;20052;-76
2023/03/05 01:34:44;;;;;;;14.30;2.10;;;;;;;2.99;100.00;100817.22;5107062;29;20054;-74
2023/03/05 01:37:14;;;;;;;7.13;2.10;;;;;;;3.09;100.00;100810.34;5114293;29;20481;-75
2023/03/05 01:39:44;;;;;;;8.75;2.35;;;;;;;3.09;100.00;100807.75;5093670;29;20023;-76
2023/03/05 01:42:15;;;;;;;12.75;2.10;;;;;;;3.08;100.00;100804.31;5110362;29;20450;-74
2023/03/05 01:45:09;;;;;;;10.63;2.30;;;;;;;2.94;100.00;100792.28;5089386;29;20081;-75
2023/03/05 01:47:39;;;;;;;10.85;2.17;;;;;;;3.00;100.00;100792.31;5107166;29;20043;-75
2023/03/05 01:50:15;;;;;;;8.57;2.50;;;;;;;3.11;100.00;100785.38;5089601;29;20027;-74
2023/03/05 01:52:52;;;;;;;15.95;2.72;;;;;;;3.08;100.00;100788.84;5106370;28;20039;-75
2023/03/05 01:55:24;;;;;;;8.43;2.95;;;;;;;3.02;100.00;100790.56;5091485;28;20031;-72
2023/03/05 01:57:59;;;;;;;10.63;2.85;;;;;;;3.06;100.00;100790.53;5096507;29;20038;-75
2023/03/05 02:00:59;;;;;;;11.15;2.63;;;;;;;2.92;100.00;100788.84;5103415;29;20046;-75
2023/03/05 02:03:33;;;;;;;11.23;2.78;;;;;;;2.93;100.00;100788.00;5100072;29;20098;-74
2023/03/05 02:06:03;;;;;;;5.85;2.50;;;;;;;2.87;100.00;100785.44;5103408;29;20039;-75
2023/03/05 02:08:33;;;;;;;9.27;2.38;;;;;;;2.95;100.00;100784.56;5104112;29;20034;-75
2023/03/05 02:11:04;;;;;;;7.18;2.50;;;;;;;2.86;100.00;100783.72;5105517;29;20165;-75
2023/03/05 02:13:39;;;;;;;4.90;1.63;;;;;;;2.87;100.00;100775.09;5109643;29;20046;-74
2023/03/05 02:16:09;;;;;;;6.60;1.90;;;;;;;2.77;100.00;100779.41;5104845;29;20041;-75
2023/03/05 02:18:40;;;;;;;6.32;1.73;;;;;;;2.92;100.00;100775.94;5099948;29;20055;-74
2023/03/05 02:21:10;;;;;;;10.57;2.17;;;;;;;2.94;100.00;100771.63;5108176;29;20383;-74
2023/03/05 02:23:41;;;;;;;8.07;2.10;;;;;;;2.97;100.00;100769.03;5107798;29;20031;-75
2023/03/05 02:26:11;;;;;;;7.70;1.65;;;;;;;2.86;100.00;100763.06;5107274;29;20034;-75
2023/03/05 02:28:45;;;;;;;5.40;1.35;;;;;;;2.88;100.00;100761.34;5091160;29;20621;-74
2023/03/05 02:31:19;;;;;;;5.70;1.17;;;;;;;2.83;100.00;100763.91;5106903;28;20507;-75
2023/03/05 02:33:52;;;;;;;6.05;1.40;;;;;;;2.82;100.00;100762.22;5108589;29;20019;-75
2023/03/05 02:36:23;;;;;;;7.53;1.23;;;;;;;2.82;100.00;100756.19;5109951;29;20490;-74
2023/03/05 02:38:55;;;;;;;5.05;1.30;;;;;;;2.75;100.00;100751.91;5113471;29;20038;-75
2023/03/05 02:41:26;;;;;;;5.45;1.58;;;;;;;2.98;100.00;100756.16;5099319;29;20031;-75
2023/03/05 02:43:57;;;;;;;7.70;1.30;;;;;;;3.01;100.00;100747.56;5108516;29;20366;-74
2023/03/05 02:46:27;;;;;;;6.28;1.65;;;;;;;2.97;100.00;100751.84;5106478;29;20612;-74
2023/03/05 02:48:57;;;;;;;6.93;1.45;;;;;;;2.98;100.00;100753.56;5108919;29;20038;-75
2023/03/05 02:51:28;;;;;;;8.93;1.50;;;;;;;2.96;100.00;100739.81;5087682;29;20106;-74
2023/03/05 02:53:58;;;;;;;7.20;1.50;;;;;;;2.98;100.00;100742.38;5108343;29;20058;-75
2023/03/05 02:56:28;;;;;;;8.20;1.70;;;;;;;2.96;100.00;100736.34;5093505;29;20384;-75
2023/03/05 02:58:59;;;;;;;6.88;1.80;;;;;;;3.03;100.00;100732.91;5105518;29;20031;-75
2023/03/05 03:01:29;;;;;;;9.00;1.60;;;;;;;3.05;100.00;100728.59;5101471;28;20036;-75
2023/03/05 03:03:59;;;;;;;8.00;1.42;;;;;;;3.07;100.00;100726.88;5102917;28;20024;-75
2023/03/05 03:06:30;;;;;;;7.47;1.50;;;;;;;3.00;100.00;100720.88;5104734;29;20110;-76
2023/03/05 03:09:00;;;;;;;7.13;1.42;;;;;;;2.87;100.00;100732.06;5103445;29;20094;-74
2023/03/05 03:11:30;;;;;;;5.15;1.35;;;;;;;2.83;100.00;100726.94;5107947;29;20420;-75
2023/03/05 03:14:00;;;;;;;6.78;1.63;;;;;;;2.76;100.00;100720.94;5106728;29;20039;-75
2023/03/05 03:16:33;;;;;;;9.93;1.70;;;;;;;2.74;100.00;100716.63;5107626;29;20071;-72
2023/03/05 03:19:03;;;;;;;8.80;1.80;;;;;;;2.69;100.00;100708.06;5106432;29;20529;-76
2023/03/05 03:21:33;;;;;;;6.72;1.33;;;;;;;2.81;100.00;100710.59;5089221;29;20027;-75
2023/03/05 03:24:04;;;;;;;13.10;1.90;;;;;;;2.72;100.00;100708.03;5106260;29;20031;-75
2023/03/05 03:26:34;;;;;;;8.15;1.70;;;;;;;2.76;100.00;100710.63;5102030;29;20470;-75
2023/03/05 03:29:04;;;;;;;14.10;1.98;;;;;;;2.72;100.00;100705.47;5105431;29;20083;-76
2023/03/05 03:31:35;;;;;;;11.25;1.90;;;;;;;2.82;100.00;100696.84;5106285;29;20041;-75
2023/03/05 03:34:05;;;;;;;7.35;1.42;;;;;;;2.71;100.00;100690.84;5107320;29;20019;-74
2023/03/05 03:36:35;;;;;;;7.35;1.58;;;;;;;2.84;100.00;100689.97;5114117;29;20031;-75
2023/03/05 03:39:08;;;;;;;10.80;1.67;;;;;;;2.72;100.00;100685.66;5111577;29;20499;-76
2023/03/05 03:41:44;;;;;;;6.88;1.48;;;;;;;2.69;100.00;100688.25;5115695;28;20046;-75
2023/03/05 03:44:16;;;;;;;11.18;1.42;;;;;;;2.76;100.00;100681.38;5100181;29;20090;-75
2023/03/05 03:46:48;;;;;;;6.00;1.80;;;;;;;2.71;100.00;100678.78;5105927;29;20490;-75
2023/03/05 03:49:21;;;;;;;12.82;1.98;;;;;;;2.77;100.00;100680.50;5098496;29;20035;-75
2023/03/05 03:51:56;;;;;;;9.13;1.80;;;;;;;2.77;100.00;100676.22;5101389;28;20310;-74
2023/03/05 03:54:27;;;;;;;6.40;1.90;;;;;;;2.78;100.00;100677.06;5100320;29;20372;-75
2023/03/05 03:56:57;;;;;;;5.70;1.55;;;;;;;2.74;100.00;100671.06;5105464;29;20239;-75
2023/03/05 03:59:28;;;;;;;6.95;1.65;;;;;;;2.89;100.00;100667.56;5108089;29;20138;-75
2023/03/05 04:01:58;;;;;;;11.48;1.90;;;;;;;2.72;100.00;100666.78;5104390;29;20409;-74
2023/03/05 04:04:29;;;;;;;5.88;1.50;;;;;;;2.80;100.00;100665.00;5105078;29;20383;-75
2023/03/05 04:06:59;;;;;;;9.18;1.98;;;;;;;2.79;100.00;100663.28;5108372;29;20032;-75
2023/03/05 04:09:29;;;;;;;6.68;1.70;;;;;;;2.79;100.00;100653.84;5110357;29;20078;-76
2023/03/05 04:11:59;;;;;;;5.15;2.13;;;;;;;2.76;100.00;100650.41;5106834;28;20449;-75
2023/03/05 04:14:30;;;;;;;6.43;1.75;;;;;;;2.76;100.00;100647.81;5102696;29;20031;-75
2023/03/05 04:17:00;;;;;;;5.55;1.77;;;;;;;2.76;100.00;100642.66;5110058;29;20030;-75
2023/03/05 04:19:30;;;;;;;4.00;1.80;;;;;;;2.81;100.00;100646.09;5108920;29;20556;-75
2023/03/05 04:22:01;;;;;;;5.57;1.48;;;;;;;2.85;100.00;100650.41;5110502;28;20063;-74
2023/03/05 04:24:31;;;;;;;6.22;1.65;;;;;;;2.89;100.00;100646.94;5109216;29;20473;-76
2023/03/05 04:27:01;;;;;;;9.90;1.73;;;;;;;2.92;100.00;100639.16;5109887;29;20059;-74
2023/03/05 04:29:32;;;;;;;8.48;1.42;;;;;;;2.93;100.00;100636.59;5109275;29;20032;-74
2023/03/05 04:32:03;;;;;;;5.45;1.50;;;;;;;2.72;100.00;100638.38;5110050;28;20572;-72
2023/03/05 04:34:34;;;;;;;9.80;1.60;;;;;;;2.74;100.00;100639.25;5097354;29;20054;-75
2023/03/05 04:37:04;;;;;;;9.93;1.80;;;;;;;2.92;100.00;100639.16;5101323;29;20024;-76
2023/03/05 04:39:34;;;;;;;5.22;1.35;;;;;;;2.86;100.00;100628.88;5115587;29;20615;-75
2023/03/05 04:42:05;;;;;;;4.80;1.70;;;;;;;2.87;100.00;100623.69;5118223;28;20031;-75
2023/03/05 04:44:35;;;;;;;8.77;3.17;;;;;;;2.82;100.00;100622.03;5108998;29;20042;-75
2023/03/05 04:47:06;;;;;;;6.70;1.95;;;;;;;2.80;100.00;100618.56;5106849;29;20027;-76
2023/03/05 04:49:36;;;;;;;5.93;1.73;;;;;;;2.80;100.00;100622.03;5099258;29;20023;-75
2023/03/05 04:52:06;;;;;;;7.00;1.75;;;;;;;2.82;100.00;100614.28;5106826;28;20040;-75
2023/03/05 04:54:37;;;;;;;4.55;1.90;;;;;;;2.71;100.00;100623.78;5109729;29;20033;-75
2023/03/05 04:57:08;;;;;;;7.15;1.80;;;;;;;2.78;100.00;100617.72;5110225;29;20034;-75
2023/03/05 04:59:38;;;;;;;4.10;1.92;;;;;;;2.84;100.00;100610.81;5110183;29;20101;-76
2023/03/05 05:02:08;;;;;;;6.05;1.80;;;;;;;2.84;100.00;100613.41;5108760;29;20460;-75
2023/03/05 05:04:42;;;;;;;5.85;1.73;;;;;;;2.83;100.00;100613.41;5109616;29;20051;-76
2023/03/05 05:07:12;;;;;;;6.43;2.08;;;;;;;2.89;100.00;100603.06;5119541;29;20563;-75
2023/03/05 05:09:42;;;;;;;8.60;2.53;;;;;;;2.90;100.00;100605.66;5115641;29;20122;-75
2023/03/05 05:12:13;;;;;;;7.97;2.25;;;;;;;2.83;100.00;100597.94;5104804;29;20420;-75
2023/03/05 05:14:43;;;;;;;6.35;2.10;;;;;;;2.91;100.00;100594.47;5093141;29;20035;-75
2023/03/05 05:17:13;;;;;;;8.48;2.30;;;;;;;2.94;100.00;100594.44;5107551;29;20040;-75
2023/03/05 05:19:43;;;;;;;10.32;2.30;;;;;;;2.84;100.00;100602.22;5108067;29;20031;-75
2023/03/05 05:22:14;;;;;;;9.95;2.00;;;;;;;2.81;100.00;100603.09;5108996;28;20027;-75
2023/03/05 05:24:44;;;;;;;6.20;2.58;;;;;;;2.80;100.00;100592.75;5109870;29;20541;-75
2023/03/05 05:27:14;;;;;;;7.45;2.00;;;;;;;2.73;100.00;100596.25;5107385;28;20031;-75
2023/03/05 05:29:49;;;;;;;9.02;2.30;;;;;;;2.80;100.00;100593.63;5110264;29;20098;-74
2023/03/05 05:32:21;;;;;;;5.38;2.30;;;;;;;2.75;100.00;100592.81;5105805;28;20062;-76
2023/03/05 05:34:55;;;;;;;8.75;2.83;;;;;;;2.81;100.00;100585.03;5107594;29;20031;-76
2023/03/05 05:37:26;;;;;;;9.18;2.03;;;;;;;2.91;100.00;100593.59;5116030;29;20058;-75
2023/03/05 05:39:56;;;;;;;9.80;2.42;;;;;;;2.92;100.00;100593.59;5115299;29;20122;-75
2023/03/05 05:42:28;;;;;;;5.55;2.35;;;;;;;2.90;100.00;100597.03;5114229;28;20103;-74
2023/03/05 05:44:59;;;;;;;7.20;2.60;;;;;;;2.90;100.00;100599.63;5098466;29;20031;-76
2023/03/05 05:47:29;;;;;;;7.78;2.30;;;;;;;2.87;100.00;100591.91;5107000;29;20217;-75
2023/03/05 05:50:00;;;;;;;12.75;2.65;;;;;;;2.93;100.00;100590.16;5107794;29;20031;-75
2023/03/05 05:52:30;;;;;;;13.55;2.90;;;;;;;2.90;100.00;100589.28;5097569;29;20063;-75
2023/03/05 05:55:00;;;;;;;8.05;2.72;;;;;;;2.87;100.00;100589.31;5103392;29;20385;-75
2023/03/05 05:57:30;;;;;;;7.75;2.67;;;;;;;2.83;100.00;100579.88;5109369;29;20027;-76
2023/03/05 06:00:02;;;;;;;8.40;3.03;;;;;;;2.91;100.00;100580.69;5107912;29;20031;-75
2023/03/05 06:02:32;;;;;;;9.18;3.05;;;;;;;2.88;100.00;100581.53;5108425;28;20485;-75
2023/03/05 06:05:03;;;;;;;14.15;3.42;;;;;;;2.92;100.00;100582.41;5110391;29;20034;-74
2023/03/05 06:07:34;;;;;;;9.85;3.38;;;;;;;2.91;100.00;100583.25;5113283;29;20049;-74
2023/03/05 06:10:06;;;;;;;11.55;3.72;;;;;;;2.91;100.00;100585.84;5110842;29;20024;-75
2023/03/05 06:12:36;;;;;;;9.02;3.20;;;;;;;2.93;100.00;100595.31;5113163;28;20735;-74
2023/03/05 06:15:07;;;;;;;12.98;3.42;;;;;;;2.93;100.00;100589.28;5108650;29;20110;-75
2023/03/05 06:17:37;;;;;;;10.80;3.88;;;;;;;2.88;100.00;100591.03;5106789;29;20066;-75
2023/03/05 06:20:08;;;;;;;9.32;3.40;;;;;;;2.89;100.00;100585.00;5108370;29;20035;-75
2023/03/05 06:22:38;;;;;;;9.48;2.97;;;;;;;2.90;100.00;100594.44;5107808;28;20418;-76
2023/03/05 06:25:09;;;;;;;10.10;3.25;;;;;;;3.02;100.00;100596.97;5107868;29;20023;-74
2023/03/05 06:27:40;;;;;;;9.70;3.00;;;;;;;2.93;100.00;100584.09;5108017;29;20095;-75
2023/03/05 06:30:11;;;;;;;7.65;2.85;;;;;;;3.02;100.00;100584.91;5101705;29;20035;-74
2023/03/05 06:32:41;;;;;;;11.95;3.58;;;;;;;3.03;100.00;100585.78;5105958;28;20086;-74
2023/03/05 06:35:12;;;;;;;12.25;3.78;;;;;;;3.01;100.00;100577.19;5107830;29;20449;-75
2023/03/05 06:37:43;;;;;;;11.30;3.38;;;;;;;3.08;100.00;100584.91;5116923;28;20081;-76
2023/03/05 06:40:14;;;;;;;14.48;3.58;;;;;;;3.02;100.00;100589.25;5101039;29;20031;-75
2023/03/05 06:42:44;;;;;;;11.55;3.20;;;;;;;3.01;100.00;100574.63;5098588;29;20488;-75
2023/03/05 06:45:14;;;;;;;9.45;3.20;;;;;;;3.08;100.00;100578.88;5106402;29;20023;-76
2023/03/05 06:47:45;;;;;;;14.45;3.55;;;;;;;3.15;100.00;100570.22;5107552;29;20032;-76
2023/03/05 06:50:15;;;;;;;7.93;3.00;;;;;;;3.16;100.00;100572.81;5102471;29;20091;-75
2023/03/05 06:52:48;;;;;;;9.55;3.85;;;;;;;3.15;100.00;100575.38;5103673;28;20031;-75
2023/03/05 06:55:19;;;;;;;8.80;2.65;;;;;;;3.30;100.00;100575.28;5109210;29;20489;-74
2023/03/05 06:57:49;;;;;;;8.23;3.47;;;;;;;3.21;100.00;100572.78;5106155;29;20033;-75
2023/03/05 07:00:20;;;;;;;8.40;2.90;;;;;;;3.30;100.00;100570.13;5107155;29;20397;-75
2023/03/05 07:02:50;;;;;;;11.32;2.63;;;;;;;3.21;100.00;100575.34;5109042;28;20039;-75
2023/03/05 07:05:20;;;;;;;8.88;2.58;;;;;;;3.40;100.00;100569.19;5109723;29;20142;-75
2023/03/05 07:07:51;;;;;;;7.40;2.33;;;;;;;3.30;100.00;100564.97;5116088;29;20122;-75
2023/03/05 07:10:21;;;;;;;6.32;2.80;;;;;;;3.20;100.00;100573.66;5112089;29;20035;-75
2023/03/05 07:12:51;;;;;;;6.22;2.60;;;;;;;3.32;100.00;100565.78;5133750;23;20272;-72
2023/03/05 07:15:22;;;;;;;7.10;2.63;;;;;;;3.23;100.00;100569.28;5110382;29;20180;-70
2023/03/05 07:17:52;;;;;;;6.90;2.30;;;;;;;3.36;100.00;100570.09;5105500;29;20110;-75
2023/03/05 07:20:22;;;;;;;7.65;2.60;;;;;;;3.23;100.00;100569.28;5106273;29;20481;-74
2023/03/05 07:22:52;;;;;;;6.25;2.50;;;;;;;3.37;100.00;100567.50;5103904;29;20031;-73
2023/03/05 07:25:23;;;;;;;7.50;2.38;;;;;;;3.31;100.00;100559.78;5106000;29;20059;-74
2023/03/05 07:27:53;;;;;;;5.78;2.20;;;;;;;3.45;100.00;100554.53;5101658;29;20023;-75
2023/03/05 07:30:23;;;;;;;6.97;2.22;;;;;;;3.51;100.00;100550.16;5102224;29;20250;-76
2023/03/05 07:32:54;;;;;;;8.43;2.67;;;;;;;3.40;100.00;100551.13;5108673;29;20062;-74
2023/03/05 07:35:24;;;;;;;6.10;1.70;;;;;;;3.50;100.00;100553.63;5107517;29;20162;-74
2023/03/05 07:37:54;;;;;;;4.88;2.08;;;;;;;3.36;100.00;100544.28;5079263;29;20383;-75
2023/03/05 07:40:25;;;;;;;7.88;1.90;;;;;;;3.26;100.00;100560.69;5113293;29;20054;-73
2023/03/05 07:42:55;;;;;;;7.13;1.77;;;;;;;3.27;100.00;100554.66;5111939;29;20027;-73
2023/03/05 07:45:25;;;;;;;5.85;2.33;;;;;;;3.33;100.00;100544.31;5108203;29;20055;-74
2023/03/05 07:47:56;;;;;;;6.35;2.05;;;;;;;3.42;100.00;100546.81;5101887;29;20136;-74
2023/03/05 07:50:26;;;;;;;5.40;1.65;;;;;;;3.44;100.00;100550.22;5096375;29;20345;-74
2023/03/05 07:52:57;;;;;;;5.82;1.80;;;;;;;3.37;100.00;100546.84;5098682;29;20543;-74
2023/03/05 07:55:27;;;;;;;6.85;2.95;;;;;;;3.56;100.00;100542.41;5101244;29;20122;-75
2023/03/05 07:57:57;;;;;;;9.93;3.20;;;;;;;3.69;100.00;100540.56;5103276;29;20573;-74
2023/03/05 08:00:28;;;;;;;7.72;2.63;;;;;;;3.77;100.00;100541.34;5099931;29;20104;-74
2023/03/05 08:02:58;;;;;;;7.65;3.22;;;;;;;3.86;100.00;100542.97;5100082;29;20602;-73
2023/03/05 08:05:28;;;;;;;8.82;2.90;;;;;;;4.00;100.00;100542.00;5103674;29;20312;-74
2023/03/05 08:07:59;;;;;;;10.82;3.67;;;;;;;4.06;100.00;100541.94;5108383;29;20541;-75
2023/03/05 08:10:29;;;;;;;7.53;3.53;;;;;;;4.06;100.00;100536.75;5102016;29;20046;-75
2023/03/05 08:12:59;;;;;;;10.20;3.00;;;;;;;4.03;100.00;100535.91;5100645;29;20438;-73
2023/03/05 08:15:30;;;;;;;7.38;2.60;;;;;;;4.30;100.00;100531.31;5098355;29;20155;-73
2023/03/05 08:18:00;;;;;;;6.50;2.40;;;;;;;4.52;100.00;100530.22;5098649;29;20030;-72
2023/03/05 08:20:34;;;;;;;8.27;2.10;;;;;;;4.46;100.00;100521.66;5101033;29;20386;-71
2023/03/05 08:23:05;;;;;;;6.28;2.40;;;;;;;4.22;100.00;100522.78;5100840;29;20034;-73
2023/03/05 08:25:36;;;;;;;10.35;2.20;;;;;;;4.13;100.00;100527.22;5103099;29;20261;-74
2023/03/05 08:28:06;;;;;;;7.72;2.30;;;;;;;4.24;100.00;100528.81;5104014;29;20386;-73
2023/03/05 08:30:39;;;;;;;8.18;3.72;;;;;;;4.27;100.00;100526.16;5104572;29;20039;-72
2023/03/05 08:33:09;;;;;;;11.23;4.18;;;;;;;4.61;100.00;100532.66;5085708;29;20024;-74
2023/03/05 08:35:39;;;;;;;14.05;4.78;;;;;;;4.44;100.00;100524.25;5101351;29;20036;-74
2023/03/05 08:38:10;;;;;;;17.75;4.85;;;;;;;4.28;100.00;100525.28;5103669;29;20079;-74
2023/03/05 08:40:42;;;;;;;8.80;3.42;;;;;;;4.19;100.00;100512.50;5085876;29;20307;-74
2023/03/05 08:43:12;;;;;;;8.98;3.47;;;;;;;4.05;100.00;100523.81;5104654;29;20063;-76
2023/03/05 08:45:42;;;;;;;11.05;3.92;;;;;;;4.07;100.00;100522.06;5106122;29;20066;-73
2023/03/05 08:48:12;;;;;;;6.43;2.03;;;;;;;4.01;100.00;100517.84;5103094;29;20101;-75
2023/03/05 08:50:43;;;;;;;8.50;3.30;;;;;;;3.90;100.00;100527.44;5101604;29;20039;-74
2023/03/05 08:53:13;;;;;;;8.93;2.70;;;;;;;3.87;100.00;100524.00;5101230;29;20336;-75
2023/03/05 08:55:52;;;;;;;7.82;2.67;;;;;;;3.73;100.00;100521.56;5101003;29;20031;-74
2023/03/05 08:58:23;;;;;;;8.60;3.47;;;;;;;3.85;100.00;100516.28;5103006;29;20023;-74
2023/03/05 09:00:53;;;;;;;12.20;3.65;;;;;;;3.85;100.00;100518.88;5099300;29;20032;-73
2023/03/05 09:03:23;;;;;;;18.27;6.07;;;;;;;3.87;100.00;100506.78;5101706;29;20041;-73
2023/03/05 09:05:59;;;;;;;23.65;7.55;;;;;;;3.82;100.00;100513.72;5087874;29;20034;-73
2023/03/05 09:08:30;;;;;;;13.88;4.95;;;;;;;4.13;100.00;100503.94;5104493;29;20470;-73
2023/03/05 09:11:02;;;;;;;10.38;4.22;;;;;;;4.19;100.00;100502.13;5106047;29;20122;-73
2023/03/05 09:13:33;;;;;;;13.13;4.25;;;;;;;4.24;100.00;100499.47;5104510;29;20042;-73
2023/03/05 09:16:05;;;;;;;10.93;4.45;;;;;;;4.36;100.00;100499.34;5105382;29;20302;-73
2023/03/05 09:18:36;;;;;;;15.13;4.53;;;;;;;4.42;100.00;100494.97;5106622;29;20086;-74
2023/03/05 09:21:08;;;;;;;9.10;2.70;;;;;;;4.48;100.00;100494.03;5095158;29;20481;-73
2023/03/05 09:23:39;;;;;;;9.68;3.22;;;;;;;4.66;100.00;100484.28;5106937;29;20474;-75
2023/03/05 09:26:11;;;;;;;15.00;4.07;;;;;;;4.57;100.00;100488.72;5091057;29;20062;-73
2023/03/05 09:28:41;;;;;;;6.72;2.50;;;;;;;4.57;100.00;100489.59;5101884;29;20058;-74
2023/03/05 09:31:11;;;;;;;8.65;3.90;;;;;;;4.90;100.00;100477.91;5102724;29;20032;-74
2023/03/05 09:33:42;;;;;;;7.30;3.08;;;;;;;5.10;100.00;100487.13;5104289;29;20032;-72
2023/03/05 09:36:26;;;;;;;5.95;2.60;;;;;;;5.08;100.00;100488.88;5095008;29;20066;-74
2023/03/05 09:38:57;;;;;;;7.72;2.78;;;;;;;4.87;100.00;100477.97;5103335;29;20031;-75
2023/03/05 09:41:34;;;;;;;6.78;3.22;;;;;;;4.70;100.00;100485.97;5112648;28;20393;-74
2023/03/05 09:44:23;;;;;;;8.45;3.15;;;;;;;4.34;100.00;100494.22;5077398;29;20023;-73
2023/03/05 09:47:01;;;;;;;7.40;2.22;;;;;;;4.01;100.00;100479.06;5111091;28;20031;-75
2023/03/05 09:49:56;;;;;;;6.55;2.53;;;;;;;4.43;100.00;100480.31;5100680;29;20027;-73
2023/03/05 09:52:42;;;;;;;6.97;2.70;;;;;;;4.66;100.00;100473.94;5105585;29;20085;-74
2023/03/05 09:55:21;;;;;;;8.05;2.65;;;;;;;4.98;100.00;100473.50;5110936;29;20455;-74
2023/03/05 09:57:56;;;;;;;6.57;2.30;;;;;;;5.01;100.00;100476.88;5110037;29;20042;-74
2023/03/05 10:00:33;;;;;;;7.00;2.38;;;;;;;5.15;100.00;100474.94;5109342;29;20450;-74
2023/03/05 10:03:09;;;;;;;8.13;2.53;;;;;;;5.08;99.99;100475.06;5107311;28;20058;-75
2023/03/05 10:06:04;;;;;;;4.68;1.70;;;;;;;5.06;99.41;100476.81;5090914;29;20390;-74
2023/03/05 10:08:47;;;;;;;15.10;6.25;;;;;;;4.82;99.61;100475.44;5109283;28;20055;-72
2023/03/05 10:11:29;;;;;;;5.35;2.30;;;;;;;5.16;100.00;100474.06;5105198;29;20120;-73
2023/03/05 10:14:01;;;;;;;6.65;2.22;;;;;;;5.21;100.00;100476.59;5099732;29;20046;-74
2023/03/05 10:16:57;;;;;;;8.43;3.20;;;;;;;5.10;98.60;100471.56;5100849;29;20032;-76
2023/03/05 10:19:34;;;;;;;5.55;2.50;;;;;;;5.34;97.18;100470.34;5096394;29;20509;-74
2023/03/05 10:22:21;;;;;;;4.30;1.90;;;;;;;5.31;94.64;100463.47;5095174;29;20430;-73
2023/03/05 10:25:13;;;;;;;5.47;2.13;;;;;;;5.49;92.59;100469.22;5091698;29;20059;-74
2023/03/05 10:28:04;;;;;;;4.22;1.75;;;;;;;5.32;91.45;100470.34;5096431;29;20055;-73
2023/03/05 10:30:58;;;;;;;5.07;1.70;;;;;;;5.40;90.19;100460.72;5085591;29;20150;-72
2023/03/05 10:33:47;;;;;;;6.47;1.30;;;;;;;5.32;90.16;100457.41;5084557;28;20050;-73
2023/03/05 10:36:20;;;;;;;2.58;0.98;;;;;;;5.15;90.18;100464.56;5100744;29;20023;-73
2023/03/05 10:39:06;;;;;;;3.78;1.30;;;;;;;4.82;89.73;100469.41;5083131;29;20024;-72
2023/03/05 10:42:11;;;;;;;2.25;0.60;;;;;;;4.68;91.17;100463.56;5099571;29;20035;-74
2023/03/05 10:44:56;;;;;;;3.17;1.40;;;;;;;4.69;92.52;100463.56;5103286;28;20062;-75
2023/03/05 10:47:44;;;;;;;5.85;1.20;;;;;;;4.72;92.77;100457.47;5103205;29;20027;-72
2023/03/05 10:50:20;;;;;;;2.58;1.40;;;;;;;4.66;93.87;100455.81;5104288;29;20039;-76
2023/03/05 10:53:05;;;;;;;3.40;1.50;;;;;;;4.65;94.00;100459.28;5086179;29;20023;-74
2023/03/05 10:55:35;;;;;;;35.95;9.80;;;;;;;4.67;93.56;100460.13;5093704;29;20079;-74
2023/03/05 10:58:16;;;;;;;19.83;6.07;;;;;;;4.54;93.11;100462.91;5098071;29;20103;-72
2023/03/05 11:01:03;;;;;;;14.07;5.82;;;;;;;4.40;95.38;100464.81;5101261;28;20043;-74
2023/03/05 11:03:45;;;;;;;7.32;2.85;;;;;;;4.21;95.93;100450.38;5079955;29;20042;-75
2023/03/05 11:06:31;;;;;;;6.60;2.42;;;;;;;4.31;96.55;100450.25;5098251;29;20043;-73
2023/03/05 11:09:14;;;;;;;4.75;1.90;;;;;;;4.57;97.02;100450.78;5100495;29;20490;-73
2023/03/05 11:12:17;;;;;;;2.95;1.50;;;;;;;4.79;95.54;100435.81;5100873;29;20051;-73
2023/03/05 11:15:27;;;;;;;3.47;1.40;;;;;;;4.84;94.95;100434.84;5092585;29;20043;-74
2023/03/05 11:18:15;;;;;;;4.00;1.45;;;;;;;4.90;95.65;100429.59;5043317;29;20395;-74
2023/03/05 11:20:46;;;;;;;4.22;1.38;;;;;;;4.91;95.40;100428.72;5031914;29;20047;-73
2023/03/05 11:23:20;;;;;;;6.20;2.38;;;;;;;4.87;94.69;100428.78;5062708;29;20043;-74
2023/03/05 11:26:03;;;;;;;5.15;1.80;;;;;;;5.00;93.82;100423.38;5095479;29;20035;-73
2023/03/05 11:28:55;;;;;;;5.03;2.40;;;;;;;5.02;93.49;100413.88;5100918;29;20038;-75
2023/03/05 11:31:29;;;;;;;4.25;1.67;;;;;;;5.11;93.31;100413.72;5095863;28;20301;-72
2023/03/05 11:34:07;;;;;;;5.35;1.40;;;;;;;5.17;91.89;100410.19;5094440;29;20118;-73
2023/03/05 11:36:40;;;;;;;5.07;1.42;;;;;;;5.10;91.36;100398.19;5097148;29;20531;-73
2023/03/05 11:39:16;;;;;;;3.85;1.38;;;;;;;5.35;90.95;100405.53;5097545;29;20028;-73
2023/03/05 11:41:56;;;;;;;6.47;1.33;;;;;;;5.39;91.73;100402.03;5098044;29;20493;-74
2023/03/05 11:44:53;;;;;;;6.18;1.33;;;;;;;5.41;90.27;100384.72;5103375;29;20045;-74
2023/03/05 11:47:37;;;;;;;2.95;0.90;;;;;;;5.46;89.82;100390.66;5095894;29;20135;-72
2023/03/05 11:50:24;;;;;;;4.82;1.05;;;;;;;5.29;87.58;100390.09;5077689;29;20050;-74
2023/03/05 11:53:26;;;;;;;2.72;1.00;;;;;;;5.41;88.44;100379.53;5100109;29;20070;-73